sensor_id;sensor_type;location;lat;lon;timestamp;pressure;altitude;pressure_sealevel;temperature;humidity
21153;BME280;10734;44.792;20.482;2023-10-08T07:58:53;100216.16;;;18.80;nan
21153;BME280;10734;44.792;20.482;2023-10-08T08:01:23;100192.06;;;18.85;nan
21153;BME280;10734;44.792;20.482;2023-10-08T08:03:53;100196.34;;;18.88;nan
21153;BME280;10734;44.792;20.482;2023-10-08T08:06:20;100188.22;;;18.98;nan
21153;BME280;10734;44.792;20.482;2023-10-08T08:08:49;100207.31;;;18.98;nan
21153;BME280;10734;44.792;20.482;2023-10-08T08:11:16;99856.09;;;16.87;nan
21153;BME280;10734;44.792;20.482;2023-10-08T08:16:12;100201.59;;;19.01;nan
21153;BME280;10734;44.792;20.482;2023-10-08T08:23:43;100185.97;;;19.03;nan
21153;BME280;10734;44.792;20.482;2023-10-08T08:26:22;100203.38;;;19.11;nan
21153;BME280;10734;44.792;20.482;2023-10-08T08:34:02;100216.00;;;19.43;nan
21153;BME280;10734;44.792;20.482;2023-10-08T08:36:34;100180.19;;;19.36;nan
21153;BME280;10734;44.792;20.482;2023-10-08T08:41:38;100179.59;;;19.43;nan
21153;BME280;10734;44.792;20.482;2023-10-08T08:44:05;100175.00;;;19.33;nan
21153;BME280;10734;44.792;20.482;2023-10-08T08:51:35;100180.06;;;19.48;nan
21153;BME280;10734;44.792;20.482;2023-10-08T08:56:37;100177.13;;;19.70;nan
21153;BME280;10734;44.792;20.482;2023-10-08T08:59:07;100171.38;;;19.93;nan
21153;BME280;10734;44.792;20.482;2023-10-08T09:01:40;100185.47;;;19.88;nan
21153;BME280;10734;44.792;20.482;2023-10-08T09:09:05;100168.34;;;20.05;nan
21153;BME280;10734;44.792;20.482;2023-10-08T09:14:23;100185.16;;;20.69;nan
21153;BME280;10734;44.792;20.482;2023-10-08T09:16:55;100184.59;;;20.65;nan
21153;BME280;10734;44.792;20.482;2023-10-08T09:19:23;100192.88;;;20.83;nan
21153;BME280;10734;44.792;20.482;2023-10-08T09:22:01;100183.41;;;20.68;nan
21153;BME280;10734;44.792;20.482;2023-10-08T09:24:33;100193.41;;;20.96;nan
21153;BME280;10734;44.792;20.482;2023-10-08T09:27:01;100199.44;;;21.00;nan
21153;BME280;10734;44.792;20.482;2023-10-08T09:29:29;100196.16;;;20.96;nan
21153;BME280;10734;44.792;20.482;2023-10-08T09:34:28;100185.28;;;21.05;nan
21153;BME280;10734;44.792;20.482;2023-10-08T09:36:56;100185.25;;;21.14;nan
21153;BME280;10734;44.792;20.482;2023-10-08T09:39:30;100183.34;;;21.24;nan
21153;BME280;10734;44.792;20.482;2023-10-08T09:42:06;100177.69;;;21.26;nan
21153;BME280;10734;44.792;20.482;2023-10-08T09:44:34;100200.09;;;21.49;nan
21153;BME280;10734;44.792;20.482;2023-10-08T09:49:33;100202.41;;;21.54;nan
21153;BME280;10734;44.792;20.482;2023-10-08T09:52:04;100195.03;;;21.54;nan
21153;BME280;10734;44.792;20.482;2023-10-08T09:54:59;100202.22;;;21.55;nan
21153;BME280;10734;44.792;20.482;2023-10-08T09:57:24;100185.75;;;21.37;nan
21153;BME280;10734;44.792;20.482;2023-10-08T09:59:53;100192.69;;;21.59;nan
21153;BME280;10734;44.792;20.482;2023-10-08T10:02:20;100172.81;;;21.75;nan
21153;BME280;10734;44.792;20.482;2023-10-08T10:04:55;100175.50;;;22.20;nan
21153;BME280;10734;44.792;20.482;2023-10-08T10:07:22;100170.47;;;22.34;nan
21153;BME280;10734;44.792;20.482;2023-10-08T10:09:52;100189.59;;;22.43;nan
21153;BME280;10734;44.792;20.482;2023-10-08T10:14:54;100176.66;;;22.36;nan
21153;BME280;10734;44.792;20.482;2023-10-08T10:17:25;100182.69;;;22.39;nan
21153;BME280;10734;44.792;20.482;2023-10-08T10:25:10;100179.03;;;23.09;nan
21153;BME280;10734;44.792;20.482;2023-10-08T10:40:22;100164.38;;;24.91;nan
21153;BME280;10734;44.792;20.482;2023-10-08T10:43:08;100141.63;;;24.89;nan
21153;BME280;10734;44.792;20.482;2023-10-08T10:45:42;100169.47;;;25.02;nan
21153;BME280;10734;44.792;20.482;2023-10-08T10:48:10;100158.56;;;24.70;nan
21153;BME280;10734;44.792;20.482;2023-10-08T10:50:41;100154.25;;;24.35;nan
21153;BME280;10734;44.792;20.482;2023-10-08T10:53:26;100145.50;;;24.55;nan
21153;BME280;10734;44.792;20.482;2023-10-08T10:55:54;100148.59;;;24.61;nan
21153;BME280;10734;44.792;20.482;2023-10-08T10:58:36;100131.03;;;24.70;nan
21153;BME280;10734;44.792;20.482;2023-10-08T11:01:06;100119.53;;;24.66;nan
21153;BME280;10734;44.792;20.482;2023-10-08T11:03:51;100127.97;;;24.32;nan
21153;BME280;10734;44.792;20.482;2023-10-08T11:06:22;100113.00;;;24.26;nan
21153;BME280;10734;44.792;20.482;2023-10-08T11:13:44;100125.22;;;24.32;nan
21153;BME280;10734;44.792;20.482;2023-10-08T11:16:18;100098.03;;;24.04;nan
21153;BME280;10734;44.792;20.482;2023-10-08T11:18:48;100102.69;;;24.12;nan
21153;BME280;10734;44.792;20.482;2023-10-08T11:21:17;100106.28;;;24.21;nan
21153;BME280;10734;44.792;20.482;2023-10-08T11:23:50;100111.47;;;24.16;nan
21153;BME280;10734;44.792;20.482;2023-10-08T11:26:23;100100.28;;;24.17;nan
21153;BME280;10734;44.792;20.482;2023-10-08T11:29:00;100106.47;;;24.19;nan
21153;BME280;10734;44.792;20.482;2023-10-08T11:31:30;100103.88;;;24.34;nan
21153;BME280;10734;44.792;20.482;2023-10-08T11:34:02;100112.47;;;24.39;nan
21153;BME280;10734;44.792;20.482;2023-10-08T11:39:20;100112.97;;;24.59;nan
21153;BME280;10734;44.792;20.482;2023-10-08T11:42:00;100114.50;;;24.70;nan
21153;BME280;10734;44.792;20.482;2023-10-08T11:46:57;100093.31;;;24.78;nan
21153;BME280;10734;44.792;20.482;2023-10-08T11:52:14;100094.44;;;25.40;nan
21153;BME280;10734;44.792;20.482;2023-10-08T12:22:09;100077.78;;;25.56;nan
21153;BME280;10734;44.792;20.482;2023-10-08T12:24:40;100073.31;;;25.55;nan
21153;BME280;10734;44.792;20.482;2023-10-08T12:27:09;100074.19;;;25.56;nan
21153;BME280;10734;44.792;20.482;2023-10-08T12:29:38;100077.91;;;25.63;nan
21153;BME280;10734;44.792;20.482;2023-10-08T12:32:05;100097.09;;;25.56;nan
21153;BME280;10734;44.792;20.482;2023-10-08T12:34:44;100082.59;;;25.54;nan
21153;BME280;10734;44.792;20.482;2023-10-08T12:37:10;100086.41;;;25.53;nan
21153;BME280;10734;44.792;20.482;2023-10-08T12:39:41;100076.97;;;25.47;nan
21153;BME280;10734;44.792;20.482;2023-10-08T12:42:26;100092.00;;;25.45;nan
21153;BME280;10734;44.792;20.482;2023-10-08T12:44:53;100099.03;;;25.47;nan
21153;BME280;10734;44.792;20.482;2023-10-08T12:47:23;100092.50;;;25.48;nan
21153;BME280;10734;44.792;20.482;2023-10-08T12:49:55;100101.13;;;25.45;nan
21153;BME280;10734;44.792;20.482;2023-10-08T12:52:24;100099.09;;;25.39;nan
21153;BME280;10734;44.792;20.482;2023-10-08T12:54:54;100098.59;;;25.36;nan
21153;BME280;10734;44.792;20.482;2023-10-08T12:57:22;100118.28;;;25.24;nan
21153;BME280;10734;44.792;20.482;2023-10-08T12:59:59;100118.50;;;25.15;nan
21153;BME280;10734;44.792;20.482;2023-10-08T13:02:26;100129.91;;;25.04;nan
21153;BME280;10734;44.792;20.482;2023-10-08T13:04:55;100135.41;;;24.95;nan
21153;BME280;10734;44.792;20.482;2023-10-08T13:07:22;100134.75;;;24.85;nan
21153;BME280;10734;44.792;20.482;2023-10-08T13:09:49;100148.03;;;24.82;nan
21153;BME280;10734;44.792;20.482;2023-10-08T13:12:16;100150.63;;;24.75;nan
21153;BME280;10734;44.792;20.482;2023-10-08T13:14:43;100142.91;;;24.70;nan
21153;BME280;10734;44.792;20.482;2023-10-08T13:17:11;100149.81;;;24.66;nan
21153;BME280;10734;44.792;20.482;2023-10-08T13:19:37;100153.06;;;24.62;nan
21153;BME280;10734;44.792;20.482;2023-10-08T13:22:04;100154.81;;;24.54;nan
21153;BME280;10734;44.792;20.482;2023-10-08T13:24:35;100151.88;;;24.48;nan
21153;BME280;10734;44.792;20.482;2023-10-08T13:27:08;100158.06;;;24.42;nan
21153;BME280;10734;44.792;20.482;2023-10-08T13:29:34;100158.38;;;24.39;nan
21153;BME280;10734;44.792;20.482;2023-10-08T13:32:01;100154.78;;;24.30;nan
21153;BME280;10734;44.792;20.482;2023-10-08T13:34:30;100154.44;;;24.25;nan
21153;BME280;10734;44.792;20.482;2023-10-08T13:36:57;100153.41;;;24.18;nan
21153;BME280;10734;44.792;20.482;2023-10-08T13:39:24;100162.88;;;24.15;nan
21153;BME280;10734;44.792;20.482;2023-10-08T13:41:51;100160.63;;;24.11;nan
21153;BME280;10734;44.792;20.482;2023-10-08T13:44:19;100149.47;;;24.12;nan
21153;BME280;10734;44.792;20.482;2023-10-08T13:46:56;100156.16;;;24.10;nan
21153;BME280;10734;44.792;20.482;2023-10-08T13:49:25;100166.16;;;24.02;nan
21153;BME280;10734;44.792;20.482;2023-10-08T13:51:53;100168.19;;;24.00;nan
21153;BME280;10734;44.792;20.482;2023-10-08T13:54:23;100176.63;;;23.99;nan
21153;BME280;10734;44.792;20.482;2023-10-08T13:56:57;100177.13;;;23.94;nan
21153;BME280;10734;44.792;20.482;2023-10-08T13:59:25;100184.50;;;23.94;nan
21153;BME280;10734;44.792;20.482;2023-10-08T14:01:52;100176.97;;;23.96;nan
21153;BME280;10734;44.792;20.482;2023-10-08T14:04:19;100179.00;;;23.94;nan
21153;BME280;10734;44.792;20.482;2023-10-08T14:06:47;100178.16;;;23.93;nan
21153;BME280;10734;44.792;20.482;2023-10-08T14:09:22;100179.19;;;23.92;nan
21153;BME280;10734;44.792;20.482;2023-10-08T14:11:58;100178.16;;;23.93;nan
21153;BME280;10734;44.792;20.482;2023-10-08T14:14:25;100186.75;;;23.90;nan
21153;BME280;10734;44.792;20.482;2023-10-08T14:16:58;100182.94;;;23.91;nan
21153;BME280;10734;44.792;20.482;2023-10-08T14:19:30;100197.59;;;23.92;nan
21153;BME280;10734;44.792;20.482;2023-10-08T14:22:09;100190.00;;;23.94;nan
21153;BME280;10734;44.792;20.482;2023-10-08T14:24:41;100196.69;;;23.91;nan
21153;BME280;10734;44.792;20.482;2023-10-08T14:27:07;100195.19;;;23.89;nan
21153;BME280;10734;44.792;20.482;2023-10-08T14:29:38;100183.81;;;23.83;nan
21153;BME280;10734;44.792;20.482;2023-10-08T14:32:11;100199.09;;;23.78;nan
21153;BME280;10734;44.792;20.482;2023-10-08T14:34:38;100196.00;;;23.73;nan
21153;BME280;10734;44.792;20.482;2023-10-08T14:37:22;100192.53;;;23.71;nan
21153;BME280;10734;44.792;20.482;2023-10-08T14:40:07;100194.38;;;23.62;nan
21153;BME280;10734;44.792;20.482;2023-10-08T14:42:52;100203.63;;;23.53;nan
21153;BME280;10734;44.792;20.482;2023-10-08T14:45:27;100208.13;;;23.54;nan
21153;BME280;10734;44.792;20.482;2023-10-08T14:47:55;100200.69;;;23.46;nan
21153;BME280;10734;44.792;20.482;2023-10-08T14:50:26;100203.56;;;23.36;nan
21153;BME280;10734;44.792;20.482;2023-10-08T14:53:05;100202.50;;;23.29;nan
21153;BME280;10734;44.792;20.482;2023-10-08T14:55:32;100220.00;;;23.20;nan
21153;BME280;10734;44.792;20.482;2023-10-08T14:58:07;100211.88;;;23.10;nan
21153;BME280;10734;44.792;20.482;2023-10-08T15:00:37;100222.63;;;23.04;nan
21153;BME280;10734;44.792;20.482;2023-10-08T15:03:06;100228.47;;;23.01;nan
21153;BME280;10734;44.792;20.482;2023-10-08T15:05:33;100223.47;;;22.96;nan
21153;BME280;10734;44.792;20.482;2023-10-08T15:08:00;100237.78;;;22.90;nan
21153;BME280;10734;44.792;20.482;2023-10-08T15:10:27;100230.19;;;22.84;nan
21153;BME280;10734;44.792;20.482;2023-10-08T15:12:56;100233.25;;;22.81;nan
21153;BME280;10734;44.792;20.482;2023-10-08T15:15:23;100223.94;;;22.74;nan
21153;BME280;10734;44.792;20.482;2023-10-08T15:17:52;100226.47;;;22.67;nan
21153;BME280;10734;44.792;20.482;2023-10-08T15:20:19;100221.63;;;22.61;nan
21153;BME280;10734;44.792;20.482;2023-10-08T15:22:50;100231.91;;;22.59;nan
21153;BME280;10734;44.792;20.482;2023-10-08T15:25:18;100232.38;;;22.54;nan
21153;BME280;10734;44.792;20.482;2023-10-08T15:27:45;100245.56;;;22.51;nan
21153;BME280;10734;44.792;20.482;2023-10-08T15:30:17;100248.59;;;22.48;nan
21153;BME280;10734;44.792;20.482;2023-10-08T15:32:49;100251.13;;;22.41;nan
21153;BME280;10734;44.792;20.482;2023-10-08T15:35:17;100250.44;;;22.39;nan
21153;BME280;10734;44.792;20.482;2023-10-08T15:37:47;100263.75;;;22.34;nan
21153;BME280;10734;44.792;20.482;2023-10-08T15:40:14;100260.31;;;22.32;nan
21153;BME280;10734;44.792;20.482;2023-10-08T15:42:52;100263.69;;;22.26;nan
21153;BME280;10734;44.792;20.482;2023-10-08T15:45:20;100262.09;;;22.23;nan
21153;BME280;10734;44.792;20.482;2023-10-08T15:47:48;100267.03;;;22.19;nan
21153;BME280;10734;44.792;20.482;2023-10-08T15:50:18;100273.00;;;22.15;nan
21153;BME280;10734;44.792;20.482;2023-10-08T15:52:51;100283.41;;;22.11;nan
21153;BME280;10734;44.792;20.482;2023-10-08T15:55:19;100282.81;;;22.08;nan
21153;BME280;10734;44.792;20.482;2023-10-08T15:57:49;100276.94;;;22.03;nan
21153;BME280;10734;44.792;20.482;2023-10-08T16:00:15;100277.44;;;21.98;nan
21153;BME280;10734;44.792;20.482;2023-10-08T16:02:44;100295.91;;;21.96;nan
21153;BME280;10734;44.792;20.482;2023-10-08T16:05:13;100299.97;;;21.92;nan
21153;BME280;10734;44.792;20.482;2023-10-08T16:07:41;100291.03;;;21.90;nan
21153;BME280;10734;44.792;20.482;2023-10-08T16:10:08;100291.19;;;21.88;nan
21153;BME280;10734;44.792;20.482;2023-10-08T16:12:36;100296.25;;;21.83;nan
21153;BME280;10734;44.792;20.482;2023-10-08T16:15:03;100299.47;;;21.79;nan
21153;BME280;10734;44.792;20.482;2023-10-08T16:17:32;100306.97;;;21.77;nan
21153;BME280;10734;44.792;20.482;2023-10-08T16:19:58;100313.78;;;21.72;nan
21153;BME280;10734;44.792;20.482;2023-10-08T16:22:25;100326.44;;;21.73;nan
21153;BME280;10734;44.792;20.482;2023-10-08T16:24:52;100331.53;;;21.68;nan
21153;BME280;10734;44.792;20.482;2023-10-08T16:27:19;100326.66;;;21.62;nan
21153;BME280;10734;44.792;20.482;2023-10-08T16:29:46;100325.97;;;21.60;nan
21153;BME280;10734;44.792;20.482;2023-10-08T16:32:14;100338.22;;;21.56;nan
21153;BME280;10734;44.792;20.482;2023-10-08T16:34:40;100344.16;;;21.52;nan
21153;BME280;10734;44.792;20.482;2023-10-08T16:37:07;100357.00;;;21.51;nan
21153;BME280;10734;44.792;20.482;2023-10-08T16:39:34;100361.06;;;21.47;nan
21153;BME280;10734;44.792;20.482;2023-10-08T16:42:01;100358.63;;;21.44;nan
21153;BME280;10734;44.792;20.482;2023-10-08T16:44:30;100355.72;;;21.36;nan
21153;BME280;10734;44.792;20.482;2023-10-08T16:46:57;100377.06;;;21.32;nan
21153;BME280;10734;44.792;20.482;2023-10-08T16:49:28;100376.78;;;21.25;nan
21153;BME280;10734;44.792;20.482;2023-10-08T16:59:20;100393.84;;;21.00;nan
21153;BME280;10734;44.792;20.482;2023-10-08T17:01:46;100409.97;;;20.93;nan
21153;BME280;10734;44.792;20.482;2023-10-08T17:04:13;100400.44;;;20.88;nan
21153;BME280;10734;44.792;20.482;2023-10-08T17:06:41;100404.94;;;20.79;nan
21153;BME280;10734;44.792;20.482;2023-10-08T17:09:07;100416.44;;;20.73;nan
